Time;durP1;ratioP1;P1;durP2;ratioP2;P2;SDS_P1;SDS_P2;PMS_P1;PMS_P2;Temp;Humidity;BMP_temperature;BMP_pressure;BME280_temperature;BME280_humidity;BME280_pressure;Samples;Min_cycle;Max_cycle;Signal;HPM_P1;HPM_P2
2021/11/24 00:00:52;;;;;;;21.48;15.43;;;;;;;6.22;86.78;101664.84;1726883;82;20940;-76
2021/11/24 00:03:18;;;;;;;28.45;17.30;;;;;;;6.22;86.78;101667.00;1708560;82;20945;-76
2021/11/24 00:05:46;;;;;;;20.08;15.48;;;;;;;6.22;86.75;101666.13;1715437;82;20907;-76
2021/11/24 00:08:12;;;;;;;24.50;17.05;;;;;;;6.21;86.75;101656.70;1711634;82;20907;-76
2021/11/24 00:10:38;;;;;;;21.77;15.93;;;;;;;6.21;86.76;101653.71;1714219;82;21347;-76
2021/11/24 00:13:05;;;;;;;23.52;17.65;;;;;;;6.21;86.78;101651.56;1716924;82;21465;-76
2021/11/24 00:15:33;;;;;;;21.93;16.27;;;;;;;6.21;86.80;101656.28;1714795;82;20898;-76
2021/11/24 00:18:00;;;;;;;28.45;15.65;;;;;;;6.20;86.80;101654.97;1734741;82;20918;-76
2021/11/24 00:20:27;;;;;;;21.62;16.05;;;;;;;6.21;86.81;101651.56;1712309;82;21464;-76
2021/11/24 00:22:53;;;;;;;26.23;16.70;;;;;;;6.21;86.79;101652.42;1690691;82;21483;-76
2021/11/24 00:25:19;;;;;;;25.82;17.00;;;;;;;6.22;86.84;101652.88;1726767;82;21597;-76
2021/11/24 00:27:47;;;;;;;25.57;17.52;;;;;;;6.23;86.79;101655.02;1723367;82;21617;-76
2021/11/24 00:30:14;;;;;;;24.57;16.35;;;;;;;6.22;86.82;101654.16;1704676;82;21585;-76
2021/11/24 00:32:41;;;;;;;28.12;17.67;;;;;;;6.22;86.80;101654.58;1707973;82;21627;-76
2021/11/24 00:35:08;;;;;;;24.92;16.80;;;;;;;6.20;86.79;101657.11;1713488;82;21071;-76
2021/11/24 00:37:34;;;;;;;;;;;;;;;6.21;86.84;101656.28;1716008;82;21085;-76
2021/11/24 00:40:01;;;;;;;28.07;17.07;;;;;;;6.22;86.92;101658.43;1710325;82;20125;-76
2021/11/24 00:42:27;;;;;;;28.50;17.65;;;;;;;6.22;86.84;101657.14;1717897;82;21097;-76
2021/11/24 00:44:54;;;;;;;22.67;16.30;;;;;;;6.22;86.86;101649.44;1721202;82;20912;-76
2021/11/24 00:47:20;;;;;;;24.77;16.57;;;;;;;6.21;86.86;101655.41;1701736;82;21040;-76
2021/11/24 00:49:50;;;;;;;28.30;16.30;;;;;;;6.22;86.89;101655.44;1724482;82;21312;-76
2021/11/24 00:52:17;;;;;;;24.82;17.32;;;;;;;6.23;86.87;101653.73;1723469;81;21025;-76
2021/11/24 00:54:44;;;;;;;23.32;15.85;;;;;;;6.22;86.85;101640.45;1709395;82;21019;-77
2021/11/24 00:57:18;;;;;;;26.97;17.02;;;;;;;6.22;86.86;101645.17;1699605;82;21528;-77
2021/11/24 00:59:44;;;;;;;20.95;15.38;;;;;;;6.21;86.85;101644.72;1699013;82;21070;-77
2021/11/24 01:02:10;;;;;;;27.77;16.32;;;;;;;6.23;86.91;101646.03;1720390;82;21049;-77
2021/11/24 01:04:37;;;;;;;28.02;17.67;;;;;;;6.23;86.91;101646.90;1721605;82;21061;-77
2021/11/24 01:07:03;;;;;;;24.27;16.57;;;;;;;6.23;86.90;101644.33;1710698;82;22156;-77
2021/11/24 01:09:30;;;;;;;;;;;;;;;6.24;86.90;101642.17;1717736;82;21339;-77
2021/11/24 01:11:56;;;;;;;22.82;15.28;;;;;;;6.24;86.93;101644.75;1707562;82;20249;-77
2021/11/24 01:14:23;;;;;;;26.12;16.35;;;;;;;6.24;86.90;101647.73;1715816;82;21539;-77
2021/11/24 01:16:49;;;;;;;22.55;16.45;;;;;;;6.23;86.89;101649.47;1699712;82;21098;-77
2021/11/24 01:19:15;;;;;;;27.73;16.27;;;;;;;6.23;86.91;101647.31;1719054;82;21096;-76
2021/11/24 01:21:44;;;;;;;27.37;16.30;;;;;;;6.22;86.92;101646.45;1688760;82;21058;-76
2021/11/24 01:24:11;;;;;;;23.25;15.80;;;;;;;6.23;86.93;101644.75;1723248;82;21732;-76
2021/11/24 01:26:38;;;;;;;20.85;15.32;;;;;;;6.23;86.94;101638.33;1729806;82;21394;-76
2021/11/24 01:29:06;;;;;;;20.62;15.63;;;;;;;6.24;86.98;101636.17;1715208;82;20910;-76
2021/11/24 01:31:32;;;;;;;20.12;15.38;;;;;;;6.23;86.94;101630.20;1728073;82;20871;-76
2021/11/24 01:33:58;;;;;;;22.25;16.77;;;;;;;6.24;86.98;101631.04;1730185;82;21382;-76
2021/11/24 01:36:27;;;;;;;21.42;14.33;;;;;;;6.25;86.98;101625.06;1726489;82;20934;-76
2021/11/24 01:38:54;;;;;;;22.77;14.58;;;;;;;6.24;86.97;101625.48;1716369;82;21444;-76
2021/11/24 01:41:20;;;;;;;23.65;14.68;;;;;;;6.24;86.95;101620.34;1724665;82;21408;-76
2021/11/24 01:43:46;;;;;;;19.92;15.32;;;;;;;6.24;86.95;101623.33;1710392;82;20928;-76
2021/11/24 01:46:13;;;;;;;22.35;14.68;;;;;;;6.23;86.97;101617.78;1730130;82;20946;-76
2021/11/24 01:48:39;;;;;;;21.00;14.40;;;;;;;6.23;86.96;101613.94;1714687;82;20899;-76
2021/11/24 01:51:06;;;;;;;19.77;13.98;;;;;;;6.22;86.99;101610.92;1719838;82;20876;-76
2021/11/24 01:53:32;;;;;;;22.98;15.78;;;;;;;6.22;87.02;101609.21;1729926;81;20926;-76
2021/11/24 01:56:00;;;;;;;24.43;15.75;;;;;;;6.22;87.02;101610.50;1722946;82;21475;-76
2021/11/24 01:58:27;;;;;;;19.92;15.45;;;;;;;6.22;87.00;101609.63;1690552;82;21633;-76
2021/11/24 02:00:55;;;;;;;21.73;15.18;;;;;;;6.21;86.99;101609.19;1698594;82;21106;-76
2021/11/24 02:03:21;;;;;;;22.05;15.85;;;;;;;6.19;87.01;101614.30;1706121;82;21081;-76
2021/11/24 02:05:48;;;;;;;23.22;15.65;;;;;;;6.18;87.04;101611.28;1725605;82;21041;-76
2021/11/24 02:08:14;;;;;;;20.75;16.02;;;;;;;6.18;87.02;101612.98;1709102;82;21336;-76
2021/11/24 02:10:41;;;;;;;27.27;16.62;;;;;;;6.18;87.04;101611.70;1694816;82;21039;-76
2021/11/24 02:13:07;;;;;;;28.05;16.60;;;;;;;6.17;87.07;101605.70;1727918;82;21057;-76
2021/11/24 02:15:33;;;;;;;21.42;15.45;;;;;;;6.17;87.07;101602.27;1717166;82;21034;-76
2021/11/24 02:18:05;;;;;;;21.90;15.65;;;;;;;6.17;87.09;101602.27;1704382;82;21435;-76
2021/11/24 02:20:39;;;;;;;24.25;15.20;;;;;;;6.16;87.05;101599.25;1714940;82;21122;-76
2021/11/24 02:23:11;;;;;;;21.25;15.83;;;;;;;6.14;87.04;101595.79;1705575;82;21057;-76
2021/11/24 02:25:39;;;;;;;25.08;15.48;;;;;;;6.11;87.08;101590.59;1717615;82;21482;-76
2021/11/24 02:28:07;;;;;;;21.93;15.10;;;;;;;6.09;87.05;101584.57;1722025;82;21027;-76
2021/11/24 02:30:36;;;;;;;24.12;14.73;;;;;;;6.09;87.08;101589.29;1715494;82;21079;-76
2021/11/24 02:33:03;;;;;;;26.23;16.05;;;;;;;6.08;87.09;101587.56;1711570;82;21047;-76
2021/11/24 02:35:29;;;;;;;24.07;15.43;;;;;;;6.06;87.07;101585.38;1705017;82;21097;-76
2021/11/24 02:37:56;;;;;;;22.20;15.65;;;;;;;6.06;87.11;101587.08;1732685;82;21049;-76
2021/11/24 02:40:29;;;;;;;22.95;15.95;;;;;;;6.06;87.11;101584.52;1722822;82;25074;-76
2021/11/24 02:43:00;;;;;;;23.22;14.90;;;;;;;6.04;87.10;101583.20;1703469;82;21112;-76
2021/11/24 02:45:27;;;;;;;23.98;16.30;;;;;;;6.03;87.11;101579.33;1721015;82;21081;-76
2021/11/24 02:47:54;;;;;;;23.00;16.00;;;;;;;6.01;87.08;101580.58;1732328;82;20965;-76
2021/11/24 02:50:21;;;;;;;23.85;14.83;;;;;;;6.00;87.08;101577.56;1707996;82;21029;-76
2021/11/24 02:52:47;;;;;;;22.58;15.53;;;;;;;5.99;87.11;101575.84;1714724;81;21201;-76
2021/11/24 02:55:15;;;;;;;21.77;15.35;;;;;;;5.98;87.13;101576.67;1728838;82;21058;-76
2021/11/24 02:57:47;;;;;;;23.55;16.10;;;;;;;5.97;87.15;101575.81;1716732;82;21035;-76
2021/11/24 03:00:27;;;;;;;27.80;15.58;;;;;;;5.98;87.14;101574.11;1728214;82;20974;-76
2021/11/24 03:02:54;;;;;;;23.18;15.43;;;;;;;5.99;87.17;101575.84;1701442;82;20916;-76
2021/11/24 03:05:25;;;;;;;19.35;13.70;;;;;;;5.97;87.15;101566.83;1708675;83;21330;-76
2021/11/24 03:07:51;;;;;;;22.17;13.48;;;;;;;5.96;87.14;101568.95;1723121;82;20867;-76
2021/11/24 03:10:19;;;;;;;18.02;13.60;;;;;;;5.96;87.13;101575.36;1716133;82;20924;-76
2021/11/24 03:12:45;;;;;;;19.50;13.98;;;;;;;5.95;87.17;101577.48;1710633;82;20863;-76
2021/11/24 03:15:11;;;;;;;20.45;14.03;;;;;;;5.94;87.19;101574.47;1701407;82;20966;-76
2021/11/24 03:17:38;;;;;;;17.32;13.22;;;;;;;5.95;87.19;101569.78;1711726;82;21098;-76
2021/11/24 03:20:07;;;;;;;;;;;;;;;5.96;87.20;101568.08;1706139;82;21078;-76
2021/11/24 03:22:34;;;;;;;19.27;12.10;;;;;;;5.96;87.27;101560.38;1710117;83;20093;-76
2021/11/24 03:25:01;;;;;;;21.33;13.75;;;;;;;5.93;87.21;101558.63;1694300;83;20933;-76
2021/11/24 03:27:34;;;;;;;16.05;12.43;;;;;;;5.94;87.23;101558.20;1693805;83;20917;-76
2021/11/24 03:30:04;;;;;;;20.43;14.00;;;;;;;5.95;87.24;101552.23;1716413;83;21323;-76
2021/11/24 03:32:31;;;;;;;17.85;13.38;;;;;;;5.95;87.27;101549.25;1709576;83;20964;-77
2021/11/24 03:34:57;;;;;;;18.80;13.43;;;;;;;5.95;87.22;101551.81;1693354;83;20901;-76
2021/11/24 03:37:24;;;;;;;23.12;14.38;;;;;;;5.93;87.22;101550.92;1688622;83;20906;-76
2021/11/24 03:39:56;;;;;;;20.80;14.40;;;;;;;5.94;87.23;101552.65;1683899;83;20965;-76
2021/11/24 03:42:22;;;;;;;21.62;14.85;;;;;;;5.93;87.25;101547.07;1691128;83;20897;-76
2021/11/24 03:44:49;;;;;;;19.25;14.18;;;;;;;5.94;87.27;101541.09;1689874;83;21270;-76
2021/11/24 03:47:16;;;;;;;19.02;14.25;;;;;;;5.95;87.27;101538.98;1691948;83;21111;-76
2021/11/24 03:49:43;;;;;;;21.07;14.50;;;;;;;5.95;87.25;101539.40;1684512;83;21131;-76
2021/11/24 03:52:10;;;;;;;18.80;13.10;;;;;;;5.94;87.25;101537.67;1683801;83;21154;-76
2021/11/24 03:54:37;;;;;;;21.85;14.30;;;;;;;5.94;87.26;101536.38;1710915;83;21041;-76
2021/11/24 03:57:04;;;;;;;21.55;14.95;;;;;;;5.93;87.23;101529.10;1706771;83;21052;-76
2021/11/24 03:59:30;;;;;;;21.20;14.93;;;;;;;5.92;87.27;101527.38;1692137;83;21148;-76
2021/11/24 04:01:59;;;;;;;20.43;14.35;;;;;;;5.91;87.28;101517.08;1687406;83;21060;-76
2021/11/24 04:04:25;;;;;;;27.52;14.68;;;;;;;5.90;87.27;101520.48;1693717;83;26981;-76
2021/11/24 04:06:51;;;;;;;16.07;12.82;;;;;;;5.88;87.26;101519.14;1694987;83;21060;-77
2021/11/24 04:09:18;;;;;;;18.30;13.45;;;;;;;5.88;87.29;101529.83;1705306;83;21445;-77
2021/11/24 04:11:44;;;;;;;19.35;13.18;;;;;;;5.86;87.27;101523.80;1701385;83;21623;-76
2021/11/24 04:14:10;;;;;;;;;;;;;;;5.85;87.30;101525.92;1694341;83;21000;-76
2021/11/24 04:16:37;;;;;;;17.23;12.78;;;;;;;5.84;87.35;101527.63;1687572;83;20244;-76
2021/11/24 04:19:03;;;;;;;20.35;13.08;;;;;;;5.83;87.35;101520.76;1689194;83;20996;-76
2021/11/24 04:21:30;;;;;;;23.22;13.80;;;;;;;5.84;87.37;101525.47;1684365;83;21067;-76
2021/11/24 04:23:58;;;;;;;19.50;12.63;;;;;;;5.84;87.36;101521.20;1691121;83;21358;-76
2021/11/24 04:26:24;;;;;;;18.27;13.70;;;;;;;5.83;87.38;101514.34;1708339;83;21049;-76
2021/11/24 04:28:52;;;;;;;20.50;14.13;;;;;;;5.84;87.38;101512.22;1711274;83;20905;-76
2021/11/24 04:31:18;;;;;;;16.65;12.10;;;;;;;5.85;87.41;101512.67;1696452;83;20913;-75
2021/11/24 04:33:45;;;;;;;17.15;12.33;;;;;;;5.86;87.39;101512.25;1687299;83;20969;-75
2021/11/24 04:36:11;;;;;;;20.48;12.63;;;;;;;5.87;87.42;101514.84;1705851;83;20969;-76
2021/11/24 04:38:37;;;;;;;19.40;13.18;;;;;;;5.87;87.42;101517.41;1673576;83;21478;-76
2021/11/24 04:41:04;;;;;;;15.43;12.28;;;;;;;5.89;87.43;101517.47;1696008;83;20925;-76
2021/11/24 04:43:33;;;;;;;19.05;13.75;;;;;;;5.89;87.43;101511.92;1699838;83;20985;-76
2021/11/24 04:46:00;;;;;;;18.15;13.70;;;;;;;5.90;87.43;101520.48;1688005;82;20917;-76
2021/11/24 04:48:27;;;;;;;17.07;12.25;;;;;;;5.90;87.46;101514.93;1700640;83;20901;-76
2021/11/24 04:50:54;;;;;;;16.73;12.40;;;;;;;5.91;87.45;101519.22;1692574;83;20954;-76
2021/11/24 04:53:21;;;;;;;;;;;;;;;5.92;87.45;101517.52;1703605;82;20893;-76
2021/11/24 04:55:47;;;;;;;;;;;;;;;5.91;87.50;101512.81;1703533;83;20137;-76
2021/11/24 04:58:13;;;;;;;;;;;;;;;5.91;87.53;101505.11;1696934;83;20159;-76
2021/11/24 05:00:40;;;;;;;12.45;10.63;;;;;;;5.92;87.52;101509.83;1709674;83;20132;-75
2021/11/24 05:03:08;;;;;;;17.73;11.57;;;;;;;5.92;87.53;101512.39;1693849;83;20936;-75
2021/11/24 05:05:34;;;;;;;16.42;11.88;;;;;;;5.91;87.54;101515.37;1694555;83;20902;-75
2021/11/24 05:08:02;;;;;;;19.05;12.18;;;;;;;5.94;87.55;101510.72;1716295;83;20921;-75
2021/11/24 05:10:28;;;;;;;15.20;11.70;;;;;;;5.93;87.54;101508.56;1681268;83;21016;-75
2021/11/24 05:12:55;;;;;;;;;;;;;;;5.95;87.54;101509.45;1694813;83;20898;-75
2021/11/24 05:15:28;;;;;;;11.38;10.18;;;;;;;5.96;87.62;101505.19;1708979;83;20112;-76
2021/11/24 05:17:55;;;;;;;13.60;10.78;;;;;;;5.96;87.56;101502.20;1701756;83;20909;-76
2021/11/24 05:20:20;;;;;;;15.00;11.05;;;;;;;5.98;87.56;101500.95;1695706;83;20901;-76
2021/11/24 05:22:48;;;;;;;12.03;10.70;;;;;;;5.97;87.56;101502.65;1706706;83;20941;-76
2021/11/24 05:25:13;;;;;;;12.70;10.63;;;;;;;6.00;87.58;101499.69;1674080;83;20925;-76
2021/11/24 05:27:40;;;;;;;13.32;10.53;;;;;;;6.02;87.58;101511.71;1686682;83;20911;-76
2021/11/24 05:30:09;;;;;;;13.40;10.38;;;;;;;6.01;87.55;101508.70;1708002;83;20965;-76
2021/11/24 05:32:37;;;;;;;13.48;10.63;;;;;;;6.03;87.54;101506.16;1691273;83;20942;-76
2021/11/24 05:35:05;;;;;;;13.32;10.93;;;;;;;6.02;87.54;101497.59;1696224;83;20941;-77
2021/11/24 05:37:31;;;;;;;16.17;10.82;;;;;;;6.03;87.52;101499.32;1704246;83;21496;-76
2021/11/24 05:39:58;;;;;;;11.83;10.08;;;;;;;6.05;87.52;101512.18;1716555;83;20945;-76
2021/11/24 05:42:27;;;;;;;14.03;10.85;;;;;;;6.04;87.55;101507.89;1682572;83;20901;-76
2021/11/24 05:45:02;;;;;;;12.53;10.00;;;;;;;6.04;87.53;101510.45;1704405;83;20949;-76
2021/11/24 05:50:06;;;;;;;15.88;11.70;;;;;;;6.05;87.56;101512.18;1698468;83;20929;-76
2021/11/24 05:52:33;;;;;;;19.62;10.98;;;;;;;6.05;87.54;101509.61;1690498;83;21390;-76
2021/11/24 05:55:00;;;;;;;17.65;12.05;;;;;;;6.05;87.57;101507.05;1709265;83;20902;-76
2021/11/24 05:57:26;;;;;;;15.28;11.50;;;;;;;6.06;87.55;101508.78;1716602;83;20897;-76
2021/11/24 05:59:55;;;;;;;18.25;12.05;;;;;;;6.05;87.59;101513.05;1681257;83;20937;-76
2021/11/24 06:02:22;;;;;;;18.52;12.05;;;;;;;6.06;87.62;101520.33;1704847;83;20921;-76
2021/11/24 06:04:48;;;;;;;13.10;11.75;;;;;;;6.06;87.63;101515.20;1699947;83;20870;-76
2021/11/24 06:07:14;;;;;;;15.55;12.35;;;;;;;6.07;87.63;101513.94;1691176;83;20886;-76
2021/11/24 06:09:40;;;;;;;16.77;12.63;;;;;;;6.07;87.63;101514.36;1709055;83;20918;-76
2021/11/24 06:12:08;;;;;;;20.52;12.05;;;;;;;6.08;87.67;101516.95;1701012;83;20898;-76
2021/11/24 06:14:34;;;;;;;15.53;11.38;;;;;;;6.07;87.63;101511.79;1708082;83;20905;-76
2021/11/24 06:17:00;;;;;;;16.60;12.37;;;;;;;6.09;87.67;101521.67;1713526;83;20937;-76
2021/11/24 06:19:27;;;;;;;17.45;12.53;;;;;;;6.08;87.67;101518.66;1699302;83;20933;-76
2021/11/24 06:21:54;;;;;;;14.60;11.53;;;;;;;6.10;87.70;101516.55;1703891;83;20937;-76
2021/11/24 06:24:21;;;;;;;14.28;11.00;;;;;;;6.11;87.68;101518.70;1710911;83;20921;-76
2021/11/24 06:26:47;;;;;;;13.43;11.30;;;;;;;6.11;87.69;101518.70;1696146;83;20932;-76
2021/11/24 06:29:13;;;;;;;15.53;11.43;;;;;;;6.10;87.67;101510.55;1703203;83;20953;-76
2021/11/24 06:31:40;;;;;;;17.10;10.58;;;;;;;6.09;87.68;101508.41;1691648;83;20956;-76
2021/11/24 06:34:06;;;;;;;20.52;12.30;;;;;;;6.09;87.67;101512.68;1703715;83;20866;-76
2021/11/24 06:36:32;;;;;;;15.20;12.15;;;;;;;6.10;87.68;101519.55;1714457;83;21422;-76
2021/11/24 06:38:59;;;;;;;18.00;11.65;;;;;;;6.10;87.73;101521.69;1709622;83;20890;-76
2021/11/24 06:41:25;;;;;;;17.30;12.60;;;;;;;6.11;87.70;101519.99;1694432;83;20945;-76
2021/11/24 06:43:54;;;;;;;14.18;11.05;;;;;;;6.11;87.70;101519.99;1702982;83;20898;-76
2021/11/24 06:46:20;;;;;;;16.87;12.35;;;;;;;6.11;87.72;101523.42;1708726;83;21321;-76
2021/11/24 06:48:48;;;;;;;19.32;12.03;;;;;;;6.14;87.75;101531.59;1704656;83;20934;-76
2021/11/24 06:51:17;;;;;;;21.27;12.33;;;;;;;6.15;87.74;101530.76;1702334;81;20992;-76
2021/11/24 06:53:45;;;;;;;14.33;11.63;;;;;;;6.16;87.74;101532.48;1697730;83;20957;-76
2021/11/24 06:56:11;;;;;;;17.98;12.40;;;;;;;6.17;87.70;101531.64;1706703;83;20894;-76
2021/11/24 06:58:38;;;;;;;17.00;11.78;;;;;;;6.16;87.71;101529.50;1699085;83;20941;-76
2021/11/24 07:01:04;;;;;;;15.58;10.95;;;;;;;6.16;87.73;101528.63;1704751;83;20894;-76
2021/11/24 07:03:31;;;;;;;15.98;11.33;;;;;;;6.16;87.73;101529.50;1696928;83;20957;-76
2021/11/24 07:05:57;;;;;;;18.35;11.05;;;;;;;6.17;87.75;101524.81;1699662;83;20957;-76
2021/11/24 07:08:23;;;;;;;18.48;11.53;;;;;;;6.19;87.78;101531.25;1706613;83;20929;-76
2021/11/24 07:10:50;;;;;;;16.32;11.33;;;;;;;6.19;87.80;101525.70;1691598;83;20949;-76
2021/11/24 07:13:17;;;;;;;18.05;10.38;;;;;;;6.20;87.77;101537.70;1706500;83;20946;-76
2021/11/24 07:15:43;;;;;;;13.20;11.08;;;;;;;6.21;87.77;101541.13;1711882;83;20948;-76
2021/11/24 07:18:09;;;;;;;15.85;10.85;;;;;;;6.21;87.82;101544.56;1698823;83;20976;-76
2021/11/24 07:20:35;;;;;;;12.53;10.03;;;;;;;6.22;87.78;101541.16;1700268;83;20906;-76
2021/11/24 07:23:02;;;;;;;14.40;10.30;;;;;;;6.23;87.78;101538.17;1710913;83;20953;-76
2021/11/24 07:25:32;;;;;;;15.38;10.25;;;;;;;6.23;87.76;101540.31;1713018;83;20937;-76
2021/11/24 07:27:58;;;;;;;13.10;9.98;;;;;;;6.24;87.76;101535.59;1685324;83;20944;-76
2021/11/24 07:30:25;;;;;;;12.13;9.98;;;;;;;6.24;87.78;101529.59;1716572;83;20867;-76
2021/11/24 07:32:52;;;;;;;;;;;;;;;6.26;87.81;101536.91;1714185;83;20882;-76
2021/11/24 07:35:18;;;;;;;12.45;9.70;;;;;;;6.26;87.89;101532.63;1697188;83;20136;-76
2021/11/24 07:37:45;;;;;;;15.88;11.10;;;;;;;6.27;87.86;101531.79;1690731;83;20905;-76
2021/11/24 07:40:15;;;;;;;14.43;10.80;;;;;;;6.28;87.83;101541.23;1700505;83;20969;-76
2021/11/24 07:42:42;;;;;;;14.47;9.85;;;;;;;6.28;87.84;101543.80;1710127;83;20933;-76
2021/11/24 07:45:10;;;;;;;13.70;10.48;;;;;;;6.30;87.87;101537.40;1705951;83;21009;-76
2021/11/24 07:47:36;;;;;;;10.00;8.93;;;;;;;6.33;87.87;101537.45;1698319;83;20941;-76
2021/11/24 07:50:03;;;;;;;;;;;;;;;6.34;87.85;101528.91;1712826;83;20940;-76
2021/11/24 07:52:30;;;;;;;10.50;8.55;;;;;;;6.36;87.92;101531.50;1694009;82;20129;-76
2021/11/24 07:54:56;;;;;;;12.20;10.38;;;;;;;6.37;87.84;101535.37;1712725;83;20941;-76
2021/11/24 07:57:23;;;;;;;13.80;9.68;;;;;;;6.39;87.86;101531.55;1716231;83;20906;-76
2021/11/24 07:59:49;;;;;;;13.68;9.18;;;;;;;6.40;87.89;101525.15;1685516;83;26579;-76
2021/11/24 08:02:17;;;;;;;11.83;10.00;;;;;;;6.43;87.90;101526.90;1692107;83;21481;-76
2021/11/24 08:04:43;;;;;;;11.08;9.15;;;;;;;6.45;87.93;101529.94;873631;82;10020879;-76
2021/11/24 08:07:09;;;;;;;17.05;9.80;;;;;;;6.49;87.93;101534.70;1705659;83;21002;-76
2021/11/24 08:09:36;;;;;;;12.93;9.95;;;;;;;6.50;87.90;101538.58;1695926;83;20968;-76
2021/11/24 08:12:03;;;;;;;12.30;9.10;;;;;;;6.53;87.90;101539.05;1702291;83;25100;-76
2021/11/24 08:14:29;;;;;;;13.18;9.13;;;;;;;6.54;87.89;101540.78;1688265;83;20897;-76
2021/11/24 08:16:56;;;;;;;12.55;9.38;;;;;;;6.55;87.93;101543.38;1689851;83;20972;-76
2021/11/24 08:19:24;;;;;;;13.32;9.30;;;;;;;6.56;87.90;101540.38;1692190;83;20975;-76
2021/11/24 08:21:50;;;;;;;16.73;11.05;;;;;;;6.57;87.88;101541.69;1696857;83;20972;-76
2021/11/24 08:24:17;;;;;;;16.40;11.30;;;;;;;6.59;87.92;101541.71;1693687;83;21557;-76
2021/11/24 08:26:43;;;;;;;17.23;11.30;;;;;;;6.61;87.94;101540.90;1687817;83;21812;-76
2021/11/24 08:29:10;;;;;;;15.23;11.43;;;;;;;6.64;87.93;101541.36;1698807;83;20978;-76
2021/11/24 08:31:42;;;;;;;17.07;11.30;;;;;;;6.65;87.89;101539.23;1688329;83;20939;-76
2021/11/24 08:34:12;;;;;;;17.42;11.43;;;;;;;6.66;87.91;101537.11;1694069;83;20960;-76
2021/11/24 08:36:39;;;;;;;14.07;10.90;;;;;;;6.66;87.88;101532.39;1693586;83;21195;-76
2021/11/24 08:39:07;;;;;;;13.48;10.53;;;;;;;6.67;87.90;101534.13;1689368;83;21697;-76
2021/11/24 08:41:33;;;;;;;15.53;11.30;;;;;;;6.67;87.89;101537.98;1697763;83;21004;-76
2021/11/24 08:44:00;;;;;;;16.07;10.80;;;;;;;6.67;87.91;101536.69;1692396;83;27111;-70
2021/11/24 08:46:27;;;;;;;15.72;10.50;;;;;;;6.67;87.94;101536.27;1694190;83;21517;-70
2021/11/24 08:48:53;;;;;;;12.60;9.88;;;;;;;6.70;87.96;101538.89;1713938;83;21587;-71
2021/11/24 08:51:20;;;;;;;13.22;10.38;;;;;;;6.73;87.97;101539.34;1709010;83;21536;-71
2021/11/24 08:53:47;;;;;;;14.83;9.05;;;;;;;6.76;87.98;101526.09;1691984;83;21504;-71
2021/11/24 08:56:13;;;;;;;10.20;9.18;;;;;;;6.78;87.97;101525.69;1711700;83;21084;-71
2021/11/24 08:58:40;;;;;;;13.25;9.03;;;;;;;6.80;87.95;101525.71;1698986;83;21552;-71
2021/11/24 09:01:07;;;;;;;14.47;10.03;;;;;;;6.83;87.95;101533.47;1694675;83;21080;-71
2021/11/24 09:03:34;;;;;;;12.03;9.48;;;;;;;6.85;87.98;101534.36;1708991;83;20937;-71
2021/11/24 09:06:03;;;;;;;14.65;10.95;;;;;;;6.87;88.00;101527.11;1679485;83;21442;-70
2021/11/24 09:08:28;;;;;;;16.32;10.32;;;;;;;6.88;87.95;101531.83;1704818;83;21459;-70
2021/11/24 09:10:55;;;;;;;14.83;8.58;;;;;;;6.87;87.91;101529.67;1710016;83;20866;-70
2021/11/24 09:13:21;;;;;;;11.85;9.08;;;;;;;6.87;87.92;101530.09;1691669;83;21407;-70
2021/11/24 09:15:48;;;;;;;12.13;9.35;;;;;;;6.89;87.95;101536.98;1696688;82;21534;-71
2021/11/24 09:18:14;;;;;;;11.55;9.33;;;;;;;6.89;87.93;101534.42;1687097;82;427387;-71
2021/11/24 09:20:41;;;;;;;10.08;9.03;;;;;;;6.90;87.97;101535.28;1689825;83;21410;-71
2021/11/24 09:23:11;;;;;;;12.53;9.43;;;;;;;6.93;88.00;101536.61;1684502;83;21517;-71
2021/11/24 09:26:27;;;;;;;11.90;8.85;;;;;;;6.95;88.04;101534.92;1705436;82;20971;-71
2021/11/24 09:28:11;;;;;;;13.05;8.90;;;;;;;6.98;88.00;101538.41;1698316;82;21408;-71
2021/11/24 09:30:38;;;;;;;11.63;8.35;;;;;;;7.02;88.07;101537.16;1707738;82;20950;-70
2021/11/24 09:33:04;;;;;;;11.48;8.40;;;;;;;7.05;88.06;101539.77;1705107;82;20927;-71
2021/11/24 09:35:32;;;;;;;9.25;8.33;;;;;;;7.06;88.03;101535.94;1705049;82;20940;-71
2021/11/24 09:37:59;;;;;;;8.73;7.83;;;;;;;7.08;87.98;101539.81;1709383;82;20959;-75
2021/11/24 09:40:25;;;;;;;;;;;;;;;7.09;88.04;101535.98;1707237;82;21803;-75
2021/11/24 09:42:56;;;;;;;13.35;8.03;;;;;;;7.11;88.01;101534.71;1724888;82;20477;-75
2021/11/24 09:45:22;;;;;;;10.60;8.20;;;;;;;7.11;88.01;101531.72;1711875;82;21443;-75
2021/11/24 09:47:50;;;;;;;7.92;7.17;;;;;;;7.11;87.99;101529.14;1712883;82;21046;-75
2021/11/24 09:50:23;;;;;;;10.23;8.00;;;;;;;7.09;87.96;101523.11;1719902;82;21006;-75
2021/11/24 09:52:48;;;;;;;9.85;7.75;;;;;;;7.08;87.93;101525.67;1713503;82;21426;-75
2021/11/24 09:55:15;;;;;;;9.28;7.92;;;;;;;7.10;88.04;101521.41;1718962;82;21438;-75
2021/11/24 09:57:41;;;;;;;;;;;;;;;7.14;88.09;101521.89;1707776;82;869432;-75
2021/11/24 10:00:10;;;;;;;8.67;7.77;;;;;;;7.14;88.09;101519.31;1707195;82;20101;-75
2021/11/24 10:02:37;;;;;;;9.03;7.12;;;;;;;7.16;88.11;101518.91;1710179;82;21463;-75
2021/11/24 10:05:04;;;;;;;10.05;7.22;;;;;;;7.19;88.12;101515.95;1709443;82;21475;-75
2021/11/24 10:07:31;;;;;;;8.00;6.70;;;;;;;7.23;88.16;101516.44;1713728;82;20892;-75
2021/11/24 10:09:59;;;;;;;8.00;7.30;;;;;;;7.28;88.15;101510.03;1711540;82;21483;-71
2021/11/24 10:12:25;;;;;;;8.40;7.03;;;;;;;7.30;88.13;101505.77;1711275;82;27342;-71
2021/11/24 10:14:52;;;;;;;8.45;6.70;;;;;;;7.34;88.13;101506.24;1725910;82;21045;-72
2021/11/24 10:17:25;;;;;;;12.10;7.17;;;;;;;7.35;88.06;101505.39;1715605;82;20991;-72
2021/11/24 10:20:10;;;;;;;8.73;6.80;;;;;;;7.35;88.01;101507.11;1713968;82;20926;-72
2021/11/24 10:22:42;;;;;;;7.65;6.92;;;;;;;7.35;88.03;101510.54;1714655;82;21041;-72
2021/11/24 10:25:13;;;;;;;10.03;7.33;;;;;;;7.36;88.06;101507.13;1716769;82;21858;-72
2021/11/24 10:27:44;;;;;;;7.62;6.85;;;;;;;7.36;88.02;101503.27;1721736;82;21437;-72
2021/11/24 10:30:27;;;;;;;7.25;6.65;;;;;;;7.36;88.02;101504.97;1728822;82;20953;-71
2021/11/24 10:32:54;;;;;;;6.70;6.03;;;;;;;7.36;88.06;101504.97;1715447;83;20937;-73
2021/11/24 10:35:29;;;;;;;6.47;5.97;;;;;;;7.38;88.10;101504.14;1712711;83;20905;-73
2021/11/24 10:38:15;;;;;;;5.47;4.95;;;;;;;7.38;88.08;101498.14;1706474;83;20968;-72
2021/11/24 10:40:46;;;;;;;5.72;5.17;;;;;;;7.39;88.05;101503.72;1700651;83;20976;-72
2021/11/24 10:43:15;;;;;;;5.95;5.20;;;;;;;7.42;88.11;101498.61;1711677;83;20866;-72
2021/11/24 10:45:56;;;;;;;5.37;4.87;;;;;;;7.44;88.14;101492.64;1707006;83;20942;-72
2021/11/24 10:48:31;;;;;;;5.53;5.10;;;;;;;7.47;88.10;101494.37;1687041;83;20955;-72
2021/11/24 10:51:02;;;;;;;5.28;4.78;;;;;;;7.49;88.10;101490.98;1706048;83;20941;-72
2021/11/24 10:53:28;;;;;;;6.00;5.40;;;;;;;7.52;88.08;101489.72;1726643;81;20902;-73
2021/11/24 10:56:05;;;;;;;7.80;5.25;;;;;;;7.54;88.06;101488.45;1724929;83;20921;-73
2021/11/24 10:58:36;;;;;;;5.12;4.62;;;;;;;7.58;88.13;101486.35;1697304;83;20897;-73
2021/11/24 11:01:02;;;;;;;4.67;4.28;;;;;;;7.61;88.11;101490.24;1718973;82;20948;-72
2021/11/24 11:03:41;;;;;;;5.12;4.62;;;;;;;7.63;88.13;101490.70;1719125;82;20913;-72
2021/11/24 11:06:08;;;;;;;5.70;5.12;;;;;;;7.69;88.16;101492.89;1718728;83;20925;-72
2021/11/24 11:08:35;;;;;;;5.90;5.45;;;;;;;7.72;88.07;101489.06;1715525;83;20933;-72
2021/11/24 11:11:05;;;;;;;6.75;5.80;;;;;;;7.69;87.97;101480.02;1722520;82;20998;-75
2021/11/24 11:13:32;;;;;;;6.50;5.90;;;;;;;7.70;88.06;101480.04;1716578;81;20949;-75
2021/11/24 11:15:58;;;;;;;6.25;5.65;;;;;;;7.75;88.12;101473.65;1689357;82;20978;-75
2021/11/24 11:18:31;;;;;;;5.90;5.28;;;;;;;7.79;88.12;101480.55;1704890;83;21120;-75
2021/11/24 11:21:11;;;;;;;6.78;5.87;;;;;;;7.81;88.08;101477.53;1703902;83;21093;-75
2021/11/24 11:23:43;;;;;;;5.67;5.17;;;;;;;7.80;88.04;101474.55;1707048;82;21181;-75
2021/11/24 11:26:15;;;;;;;5.58;5.00;;;;;;;7.76;87.94;101474.09;1702569;82;20900;-75
2021/11/24 11:28:46;;;;;;;6.65;5.70;;;;;;;7.73;87.96;101472.77;1714770;82;21545;-75